sensor_id;sensor_type;location;lat;lon;timestamp;pressure;altitude;pressure_sealevel;temperature;humidity
46241;BME280;31961;52.416;-0.732;2023-01-26T00:00:26;102111.97;;;0.86;100.00
46241;BME280;31961;52.416;-0.732;2023-01-26T00:02:53;102103.90;;;0.52;100.00
46241;BME280;31961;52.416;-0.732;2023-01-26T00:05:20;102106.55;;;1.21;100.00
46241;BME280;31961;52.416;-0.732;2023-01-26T00:07:47;102102.81;;;0.71;100.00
46241;BME280;31961;52.416;-0.732;2023-01-26T00:10:14;102112.40;;;1.00;100.00
46241;BME280;31961;52.416;-0.732;2023-01-26T00:12:41;102106.38;;;0.59;100.00
46241;BME280;31961;52.416;-0.732;2023-01-26T00:15:09;102104.24;;;1.05;100.00
46241;BME280;31961;52.416;-0.732;2023-01-26T00:17:36;102105.76;;;0.56;100.00
46241;BME280;31961;52.416;-0.732;2023-01-26T00:20:04;102099.55;;;0.39;100.00
46241;BME280;31961;52.416;-0.732;2023-01-26T00:22:31;102098.74;;;0.69;100.00
46241;BME280;31961;52.416;-0.732;2023-01-26T00:24:59;102090.26;;;0.82;100.00
46241;BME280;31961;52.416;-0.732;2023-01-26T00:27:26;102092.52;;;0.71;100.00
46241;BME280;31961;52.416;-0.732;2023-01-26T00:29:54;102094.04;;;0.68;100.00
46241;BME280;31961;52.416;-0.732;2023-01-26T00:32:21;102091.14;;;0.26;100.00
46241;BME280;31961;52.416;-0.732;2023-01-26T00:34:49;102087.41;;;0.54;100.00
46241;BME280;31961;52.416;-0.732;2023-01-26T00:37:16;102087.37;;;0.24;100.00
46241;BME280;31961;52.416;-0.732;2023-01-26T00:39:43;102090.73;;;1.01;100.00
46241;BME280;31961;52.416;-0.732;2023-01-26T00:42:10;102086.86;;;0.83;100.00
46241;BME280;31961;52.416;-0.732;2023-01-26T00:44:39;102087.21;;;0.43;100.00
46241;BME280;31961;52.416;-0.732;2023-01-26T00:47:08;102085.42;;;0.83;100.00
46241;BME280;31961;52.416;-0.732;2023-01-26T00:49:36;102089.58;;;1.10;100.00
46241;BME280;31961;52.416;-0.732;2023-01-26T00:52:04;102087.24;;;1.62;100.00
46241;BME280;31961;52.416;-0.732;2023-01-26T00:54:32;102094.11;;;0.45;100.00
46241;BME280;31961;52.416;-0.732;2023-01-26T00:57:00;102096.04;;;0.47;100.00
46241;BME280;31961;52.416;-0.732;2023-01-26T00:59:27;102093.88;;;1.44;100.00
46241;BME280;31961;52.416;-0.732;2023-01-26T01:01:54;102095.04;;;1.07;100.00
46241;BME280;31961;52.416;-0.732;2023-01-26T01:04:22;102101.96;;;1.09;100.00
46241;BME280;31961;52.416;-0.732;2023-01-26T01:06:50;102103.62;;;0.88;100.00
46241;BME280;31961;52.416;-0.732;2023-01-26T01:09:17;102102.81;;;0.80;100.00
46241;BME280;31961;52.416;-0.732;2023-01-26T01:11:45;102100.64;;;0.73;100.00
46241;BME280;31961;52.416;-0.732;2023-01-26T01:14:13;102100.83;;;0.96;100.00
46241;BME280;31961;52.416;-0.732;2023-01-26T01:16:41;102094.63;;;1.05;100.00
46241;BME280;31961;52.416;-0.732;2023-01-26T01:19:13;102097.29;;;0.99;100.00
46241;BME280;31961;52.416;-0.732;2023-01-26T01:21:41;102100.06;;;0.63;100.00
46241;BME280;31961;52.416;-0.732;2023-01-26T01:24:08;102103.20;;;0.88;100.00
46241;BME280;31961;52.416;-0.732;2023-01-26T01:26:36;102099.31;;;0.40;100.00
46241;BME280;31961;52.416;-0.732;2023-01-26T01:29:04;102101.72;;;0.83;100.00
46241;BME280;31961;52.416;-0.732;2023-01-26T01:31:31;102100.94;;;0.90;100.00
46241;BME280;31961;52.416;-0.732;2023-01-26T01:33:58;102104.73;;;1.02;100.00
46241;BME280;31961;52.416;-0.732;2023-01-26T01:36:26;102107.47;;;0.88;100.00
46241;BME280;31961;52.416;-0.732;2023-01-26T01:38:53;102109.75;;;0.28;100.00
46241;BME280;31961;52.416;-0.732;2023-01-26T01:41:21;102107.31;;;-0.38;100.00
46241;BME280;31961;52.416;-0.732;2023-01-26T01:43:49;102108.20;;;0.80;100.00
46241;BME280;31961;52.416;-0.732;2023-01-26T01:46:23;102103.39;;;0.54;100.00
46241;BME280;31961;52.416;-0.732;2023-01-26T01:48:57;102103.18;;;0.05;100.00
46241;BME280;31961;52.416;-0.732;2023-01-26T01:51:31;102103.56;;;0.59;100.00
46241;BME280;31961;52.416;-0.732;2023-01-26T01:54:03;102107.65;;;0.07;100.00
46241;BME280;31961;52.416;-0.732;2023-01-26T01:56:32;102101.08;;;0.54;100.00
46241;BME280;31961;52.416;-0.732;2023-01-26T01:59:02;102099.31;;;0.21;100.00
46241;BME280;31961;52.416;-0.732;2023-01-26T02:01:30;102101.53;;;-0.40;100.00
46241;BME280;31961;52.416;-0.732;2023-01-26T02:03:59;102105.34;;;-0.50;100.00
46241;BME280;31961;52.416;-0.732;2023-01-26T02:06:30;102104.53;;;-0.16;100.00
46241;BME280;31961;52.416;-0.732;2023-01-26T02:08:59;102109.90;;;0.34;100.00
46241;BME280;31961;52.416;-0.732;2023-01-26T02:11:29;102107.66;;;0.01;100.00
46241;BME280;31961;52.416;-0.732;2023-01-26T02:14:00;102108.46;;;-0.05;100.00
46241;BME280;31961;52.416;-0.732;2023-01-26T02:16:28;102110.10;;;-0.11;100.00
46241;BME280;31961;52.416;-0.732;2023-01-26T02:18:56;102105.78;;;0.46;100.00
46241;BME280;31961;52.416;-0.732;2023-01-26T02:21:24;102106.64;;;0.35;100.00
46241;BME280;31961;52.416;-0.732;2023-01-26T02:24:02;102107.51;;;-0.45;100.00
46241;BME280;31961;52.416;-0.732;2023-01-26T02:26:33;102106.29;;;-0.34;100.00
46241;BME280;31961;52.416;-0.732;2023-01-26T02:29:02;102106.63;;;-0.30;100.00
46241;BME280;31961;52.416;-0.732;2023-01-26T02:31:30;102106.09;;;-0.17;100.00
46241;BME280;31961;52.416;-0.732;2023-01-26T02:33:58;102105.21;;;-0.49;100.00
46241;BME280;31961;52.416;-0.732;2023-01-26T02:36:27;102104.88;;;-0.17;100.00
46241;BME280;31961;52.416;-0.732;2023-01-26T02:39:08;102105.02;;;-0.25;100.00
46241;BME280;31961;52.416;-0.732;2023-01-26T02:41:38;102102.58;;;-0.92;100.00
46241;BME280;31961;52.416;-0.732;2023-01-26T02:44:08;102104.85;;;-0.96;100.00
46241;BME280;31961;52.416;-0.732;2023-01-26T02:46:35;102103.45;;;-1.06;100.00
46241;BME280;31961;52.416;-0.732;2023-01-26T02:49:03;102098.56;;;-0.66;100.00
46241;BME280;31961;52.416;-0.732;2023-01-26T02:51:30;102102.12;;;-0.50;100.00
46241;BME280;31961;52.416;-0.732;2023-01-26T02:53:57;102108.95;;;-0.71;100.00
46241;BME280;31961;52.416;-0.732;2023-01-26T02:56:24;102115.90;;;-0.09;100.00
46241;BME280;31961;52.416;-0.732;2023-01-26T02:58:52;102119.83;;;-0.91;100.00
46241;BME280;31961;52.416;-0.732;2023-01-26T03:01:18;102118.65;;;-0.31;100.00
46241;BME280;31961;52.416;-0.732;2023-01-26T03:03:45;102116.97;;;0.21;100.00
46241;BME280;31961;52.416;-0.732;2023-01-26T03:06:14;102123.27;;;-0.07;100.00
46241;BME280;31961;52.416;-0.732;2023-01-26T03:08:41;102130.61;;;-0.74;100.00
46241;BME280;31961;52.416;-0.732;2023-01-26T03:11:09;102129.54;;;-0.70;100.00
46241;BME280;31961;52.416;-0.732;2023-01-26T03:13:36;102127.78;;;-0.42;100.00
46241;BME280;31961;52.416;-0.732;2023-01-26T03:16:06;102126.92;;;-0.71;100.00
46241;BME280;31961;52.416;-0.732;2023-01-26T03:18:34;102130.71;;;-0.92;100.00
46241;BME280;31961;52.416;-0.732;2023-01-26T03:21:04;102136.58;;;-0.88;100.00
46241;BME280;31961;52.416;-0.732;2023-01-26T03:23:31;102128.91;;;-0.91;100.00
46241;BME280;31961;52.416;-0.732;2023-01-26T03:25:58;102129.28;;;-0.62;100.00
46241;BME280;31961;52.416;-0.732;2023-01-26T03:28:25;102129.90;;;-0.87;100.00
46241;BME280;31961;52.416;-0.732;2023-01-26T03:30:54;102126.13;;;-0.23;100.00
46241;BME280;31961;52.416;-0.732;2023-01-26T03:33:23;102127.37;;;-0.82;100.00
46241;BME280;31961;52.416;-0.732;2023-01-26T03:35:52;102126.48;;;-0.58;100.00
46241;BME280;31961;52.416;-0.732;2023-01-26T03:38:20;102125.53;;;-0.07;100.00
46241;BME280;31961;52.416;-0.732;2023-01-26T03:40:47;102127.01;;;-0.53;100.00
46241;BME280;31961;52.416;-0.732;2023-01-26T03:43:14;102127.69;;;-0.92;100.00
46241;BME280;31961;52.416;-0.732;2023-01-26T03:45:41;102126.00;;;-1.21;100.00
46241;BME280;31961;52.416;-0.732;2023-01-26T03:48:10;102132.83;;;-0.82;100.00
46241;BME280;31961;52.416;-0.732;2023-01-26T03:50:38;102132.27;;;-1.02;100.00
46241;BME280;31961;52.416;-0.732;2023-01-26T03:53:12;102138.77;;;-1.11;100.00
46241;BME280;31961;52.416;-0.732;2023-01-26T03:55:39;102141.14;;;-0.76;100.00
46241;BME280;31961;52.416;-0.732;2023-01-26T03:58:06;102137.51;;;-0.44;100.00
46241;BME280;31961;52.416;-0.732;2023-01-26T04:00:34;102138.45;;;-0.33;100.00
46241;BME280;31961;52.416;-0.732;2023-01-26T04:03:02;102138.28;;;-0.33;100.00
46241;BME280;31961;52.416;-0.732;2023-01-26T04:05:29;102135.10;;;-0.60;100.00
46241;BME280;31961;52.416;-0.732;2023-01-26T04:08:01;102131.44;;;-0.60;100.00
46241;BME280;31961;52.416;-0.732;2023-01-26T04:10:28;102136.23;;;-0.72;100.00
46241;BME280;31961;52.416;-0.732;2023-01-26T04:12:56;102138.25;;;-0.43;100.00
46241;BME280;31961;52.416;-0.732;2023-01-26T04:15:24;102142.45;;;-0.44;100.00
46241;BME280;31961;52.416;-0.732;2023-01-26T04:17:51;102138.28;;;-0.47;100.00
46241;BME280;31961;52.416;-0.732;2023-01-26T04:20:18;102144.42;;;-0.19;100.00
46241;BME280;31961;52.416;-0.732;2023-01-26T04:22:45;102148.19;;;-0.55;100.00
46241;BME280;31961;52.416;-0.732;2023-01-26T04:25:13;102150.90;;;-1.21;100.00
46241;BME280;31961;52.416;-0.732;2023-01-26T04:27:41;102154.13;;;-1.05;100.00
46241;BME280;31961;52.416;-0.732;2023-01-26T04:30:10;102154.80;;;-0.73;100.00
46241;BME280;31961;52.416;-0.732;2023-01-26T04:32:38;102157.56;;;-0.66;100.00
46241;BME280;31961;52.416;-0.732;2023-01-26T04:35:07;102155.76;;;-0.73;100.00
46241;BME280;31961;52.416;-0.732;2023-01-26T04:37:35;102153.31;;;-0.25;100.00
46241;BME280;31961;52.416;-0.732;2023-01-26T04:40:03;102153.50;;;-0.56;100.00
46241;BME280;31961;52.416;-0.732;2023-01-26T04:42:31;102152.45;;;-0.44;100.00
46241;BME280;31961;52.416;-0.732;2023-01-26T04:44:58;102160.61;;;-0.17;100.00
46241;BME280;31961;52.416;-0.732;2023-01-26T04:47:26;102160.72;;;-0.50;100.00
46241;BME280;31961;52.416;-0.732;2023-01-26T04:49:53;102161.30;;;0.19;100.00
46241;BME280;31961;52.416;-0.732;2023-01-26T04:52:21;102161.97;;;0.17;100.00
46241;BME280;31961;52.416;-0.732;2023-01-26T04:54:49;102161.96;;;0.26;100.00
46241;BME280;31961;52.416;-0.732;2023-01-26T04:57:16;102155.46;;;-0.05;100.00
46241;BME280;31961;52.416;-0.732;2023-01-26T04:59:44;102150.51;;;-0.10;100.00
46241;BME280;31961;52.416;-0.732;2023-01-26T05:02:11;102153.60;;;0.22;100.00
46241;BME280;31961;52.416;-0.732;2023-01-26T05:04:39;102141.17;;;0.42;100.00
46241;BME280;31961;52.416;-0.732;2023-01-26T05:07:05;102145.21;;;0.71;100.00
46241;BME280;31961;52.416;-0.732;2023-01-26T05:09:33;102144.07;;;0.14;100.00
46241;BME280;31961;52.416;-0.732;2023-01-26T05:12:01;102141.14;;;0.40;100.00
46241;BME280;31961;52.416;-0.732;2023-01-26T05:14:28;102144.36;;;0.61;100.00
46241;BME280;31961;52.416;-0.732;2023-01-26T05:16:56;102142.30;;;0.21;100.00
46241;BME280;31961;52.416;-0.732;2023-01-26T05:19:23;102143.30;;;0.06;100.00
46241;BME280;31961;52.416;-0.732;2023-01-26T05:21:50;102147.52;;;0.39;100.00
46241;BME280;31961;52.416;-0.732;2023-01-26T05:24:18;102151.44;;;0.09;100.00
46241;BME280;31961;52.416;-0.732;2023-01-26T05:26:45;102152.87;;;0.07;100.00
46241;BME280;31961;52.416;-0.732;2023-01-26T05:29:13;102154.38;;;0.75;100.00
46241;BME280;31961;52.416;-0.732;2023-01-26T05:31:40;102149.90;;;0.92;100.00
46241;BME280;31961;52.416;-0.732;2023-01-26T05:34:07;102153.63;;;1.67;100.00
46241;BME280;31961;52.416;-0.732;2023-01-26T05:36:34;102158.24;;;2.37;100.00
46241;BME280;31961;52.416;-0.732;2023-01-26T05:39:02;102160.05;;;1.78;100.00
46241;BME280;31961;52.416;-0.732;2023-01-26T05:41:29;102163.23;;;1.54;100.00
46241;BME280;31961;52.416;-0.732;2023-01-26T05:43:56;102166.40;;;1.88;100.00
46241;BME280;31961;52.416;-0.732;2023-01-26T05:46:24;102159.46;;;2.17;100.00
46241;BME280;31961;52.416;-0.732;2023-01-26T05:48:52;102159.40;;;2.34;100.00
46241;BME280;31961;52.416;-0.732;2023-01-26T05:51:19;102168.65;;;2.56;100.00
46241;BME280;31961;52.416;-0.732;2023-01-26T05:53:46;102167.03;;;2.94;100.00
46241;BME280;31961;52.416;-0.732;2023-01-26T05:56:13;102170.85;;;2.31;100.00
46241;BME280;31961;52.416;-0.732;2023-01-26T05:58:40;102167.79;;;3.38;100.00
46241;BME280;31961;52.416;-0.732;2023-01-26T06:01:08;102169.20;;;2.88;100.00
46241;BME280;31961;52.416;-0.732;2023-01-26T06:03:35;102176.06;;;2.37;100.00
46241;BME280;31961;52.416;-0.732;2023-01-26T06:06:03;102183.37;;;2.18;100.00
46241;BME280;31961;52.416;-0.732;2023-01-26T06:08:30;102193.67;;;1.98;100.00
46241;BME280;31961;52.416;-0.732;2023-01-26T06:10:58;102196.74;;;2.09;100.00
46241;BME280;31961;52.416;-0.732;2023-01-26T06:13:25;102204.89;;;2.31;100.00
46241;BME280;31961;52.416;-0.732;2023-01-26T06:15:53;102203.33;;;2.21;100.00
46241;BME280;31961;52.416;-0.732;2023-01-26T06:18:21;102201.10;;;2.40;100.00
46241;BME280;31961;52.416;-0.732;2023-01-26T06:20:48;102208.35;;;1.85;100.00
46241;BME280;31961;52.416;-0.732;2023-01-26T06:23:15;102208.02;;;1.73;100.00
46241;BME280;31961;52.416;-0.732;2023-01-26T06:25:42;102204.58;;;1.62;100.00
46241;BME280;31961;52.416;-0.732;2023-01-26T06:28:10;102206.63;;;1.68;100.00
46241;BME280;31961;52.416;-0.732;2023-01-26T06:30:38;102208.12;;;1.57;100.00
46241;BME280;31961;52.416;-0.732;2023-01-26T06:33:05;102209.30;;;1.71;100.00
46241;BME280;31961;52.416;-0.732;2023-01-26T06:35:32;102209.83;;;2.01;100.00
46241;BME280;31961;52.416;-0.732;2023-01-26T06:38:00;102198.36;;;1.38;100.00
46241;BME280;31961;52.416;-0.732;2023-01-26T06:40:27;102191.12;;;1.20;100.00
46241;BME280;31961;52.416;-0.732;2023-01-26T06:42:55;102197.36;;;1.60;100.00
46241;BME280;31961;52.416;-0.732;2023-01-26T06:45:22;102204.80;;;1.63;100.00
46241;BME280;31961;52.416;-0.732;2023-01-26T06:47:50;102209.35;;;0.99;100.00
46241;BME280;31961;52.416;-0.732;2023-01-26T06:50:19;102209.73;;;1.62;100.00
46241;BME280;31961;52.416;-0.732;2023-01-26T06:52:47;102212.54;;;1.46;100.00
46241;BME280;31961;52.416;-0.732;2023-01-26T06:55:19;102220.22;;;1.41;100.00
46241;BME280;31961;52.416;-0.732;2023-01-26T06:57:47;102222.41;;;1.22;100.00
46241;BME280;31961;52.416;-0.732;2023-01-26T07:00:16;102228.21;;;0.40;100.00
46241;BME280;31961;52.416;-0.732;2023-01-26T07:02:43;102228.78;;;1.00;100.00
46241;BME280;31961;52.416;-0.732;2023-01-26T07:05:11;102222.37;;;1.29;100.00
46241;BME280;31961;52.416;-0.732;2023-01-26T07:07:38;102216.58;;;1.43;100.00
46241;BME280;31961;52.416;-0.732;2023-01-26T07:10:07;102224.05;;;1.37;100.00
46241;BME280;31961;52.416;-0.732;2023-01-26T07:12:38;102224.79;;;1.28;100.00
46241;BME280;31961;52.416;-0.732;2023-01-26T07:15:06;102232.63;;;1.65;100.00
46241;BME280;31961;52.416;-0.732;2023-01-26T07:17:34;102231.33;;;0.93;100.00
46241;BME280;31961;52.416;-0.732;2023-01-26T07:20:02;102233.61;;;1.08;100.00
46241;BME280;31961;52.416;-0.732;2023-01-26T07:22:29;102231.08;;;1.26;100.00
46241;BME280;31961;52.416;-0.732;2023-01-26T07:24:57;102232.74;;;1.76;100.00
46241;BME280;31961;52.416;-0.732;2023-01-26T07:27:24;102230.36;;;2.04;100.00
46241;BME280;31961;52.416;-0.732;2023-01-26T07:29:52;102228.44;;;0.98;100.00
46241;BME280;31961;52.416;-0.732;2023-01-26T07:32:19;102229.14;;;0.93;100.00
46241;BME280;31961;52.416;-0.732;2023-01-26T07:34:47;102223.15;;;1.03;100.00
46241;BME280;31961;52.416;-0.732;2023-01-26T07:37:15;102230.08;;;0.39;100.00
46241;BME280;31961;52.416;-0.732;2023-01-26T07:39:42;102235.12;;;0.79;100.00
46241;BME280;31961;52.416;-0.732;2023-01-26T07:42:10;102238.19;;;1.61;100.00
46241;BME280;31961;52.416;-0.732;2023-01-26T07:44:37;102241.67;;;1.46;100.00
46241;BME280;31961;52.416;-0.732;2023-01-26T07:47:05;102247.01;;;1.98;100.00
46241;BME280;31961;52.416;-0.732;2023-01-26T07:49:32;102238.78;;;1.27;100.00
46241;BME280;31961;52.416;-0.732;2023-01-26T07:52:00;102240.98;;;1.27;100.00
46241;BME280;31961;52.416;-0.732;2023-01-26T07:54:27;102239.72;;;0.99;100.00
46241;BME280;31961;52.416;-0.732;2023-01-26T07:56:55;102247.56;;;1.44;100.00
46241;BME280;31961;52.416;-0.732;2023-01-26T07:59:23;102244.89;;;0.65;100.00
46241;BME280;31961;52.416;-0.732;2023-01-26T08:01:50;102252.41;;;1.11;100.00
46241;BME280;31961;52.416;-0.732;2023-01-26T08:04:18;102259.41;;;0.59;100.00
46241;BME280;31961;52.416;-0.732;2023-01-26T08:06:45;102259.27;;;1.20;100.00
46241;BME280;31961;52.416;-0.732;2023-01-26T08:09:13;102253.49;;;1.51;100.00
46241;BME280;31961;52.416;-0.732;2023-01-26T08:11:40;102253.67;;;1.18;100.00
46241;BME280;31961;52.416;-0.732;2023-01-26T08:14:08;102251.30;;;0.84;100.00
46241;BME280;31961;52.416;-0.732;2023-01-26T08:16:36;102250.84;;;0.91;100.00
46241;BME280;31961;52.416;-0.732;2023-01-26T08:19:03;102250.59;;;1.57;100.00
46241;BME280;31961;52.416;-0.732;2023-01-26T08:21:31;102251.18;;;1.74;100.00
46241;BME280;31961;52.416;-0.732;2023-01-26T08:23:58;102248.18;;;1.51;100.00
46241;BME280;31961;52.416;-0.732;2023-01-26T08:26:25;102250.32;;;1.29;100.00
46241;BME280;31961;52.416;-0.732;2023-01-26T08:28:53;102249.82;;;1.55;100.00
46241;BME280;31961;52.416;-0.732;2023-01-26T08:31:21;102253.99;;;1.92;100.00
46241;BME280;31961;52.416;-0.732;2023-01-26T08:33:49;102259.09;;;1.60;100.00
46241;BME280;31961;52.416;-0.732;2023-01-26T08:36:17;102264.25;;;2.35;100.00
46241;BME280;31961;52.416;-0.732;2023-01-26T08:38:45;102264.62;;;1.56;100.00
46241;BME280;31961;52.416;-0.732;2023-01-26T08:41:13;102270.51;;;0.77;100.00
46241;BME280;31961;52.416;-0.732;2023-01-26T08:43:40;102263.82;;;1.62;100.00
46241;BME280;31961;52.416;-0.732;2023-01-26T08:46:08;102266.37;;;1.40;100.00
46241;BME280;31961;52.416;-0.732;2023-01-26T08:48:36;102269.83;;;1.03;100.00
46241;BME280;31961;52.416;-0.732;2023-01-26T08:51:05;102277.56;;;1.83;100.00
46241;BME280;31961;52.416;-0.732;2023-01-26T08:53:34;102279.96;;;1.96;100.00
46241;BME280;31961;52.416;-0.732;2023-01-26T08:56:02;102283.30;;;1.92;100.00
46241;BME280;31961;52.416;-0.732;2023-01-26T08:58:31;102284.51;;;1.71;100.00
46241;BME280;31961;52.416;-0.732;2023-01-26T09:00:58;102286.40;;;1.44;100.00
46241;BME280;31961;52.416;-0.732;2023-01-26T09:03:25;102291.75;;;1.09;100.00
46241;BME280;31961;52.416;-0.732;2023-01-26T09:05:58;102291.31;;;1.40;100.00
46241;BME280;31961;52.416;-0.732;2023-01-26T09:08:25;102292.37;;;2.05;100.00
46241;BME280;31961;52.416;-0.732;2023-01-26T09:10:53;102283.11;;;1.73;100.00
46241;BME280;31961;52.416;-0.732;2023-01-26T09:13:20;102287.46;;;1.83;100.00
46241;BME280;31961;52.416;-0.732;2023-01-26T09:15:48;102290.83;;;1.94;100.00
46241;BME280;31961;52.416;-0.732;2023-01-26T09:18:16;102291.68;;;0.95;100.00
46241;BME280;31961;52.416;-0.732;2023-01-26T09:20:43;102290.94;;;1.42;100.00
46241;BME280;31961;52.416;-0.732;2023-01-26T09:23:10;102289.24;;;1.68;100.00
46241;BME280;31961;52.416;-0.732;2023-01-26T09:25:38;102286.14;;;2.11;100.00
46241;BME280;31961;52.416;-0.732;2023-01-26T09:28:06;102281.67;;;2.12;100.00
46241;BME280;31961;52.416;-0.732;2023-01-26T09:30:33;102279.24;;;2.18;100.00
46241;BME280;31961;52.416;-0.732;2023-01-26T09:33:02;102274.55;;;1.92;100.00
46241;BME280;31961;52.416;-0.732;2023-01-26T09:35:30;102276.23;;;2.23;100.00
46241;BME280;31961;52.416;-0.732;2023-01-26T09:37:57;102279.01;;;1.25;100.00
46241;BME280;31961;52.416;-0.732;2023-01-26T09:40:35;102287.10;;;1.97;100.00
46241;BME280;31961;52.416;-0.732;2023-01-26T09:43:15;102289.14;;;2.17;100.00
46241;BME280;31961;52.416;-0.732;2023-01-26T09:45:55;102290.26;;;2.42;100.00
46241;BME280;31961;52.416;-0.732;2023-01-26T09:48:33;102298.60;;;1.96;100.00
46241;BME280;31961;52.416;-0.732;2023-01-26T09:51:06;102298.43;;;2.10;100.00
46241;BME280;31961;52.416;-0.732;2023-01-26T09:53:42;102297.75;;;2.08;100.00
46241;BME280;31961;52.416;-0.732;2023-01-26T09:56:15;102293.66;;;1.81;100.00
46241;BME280;31961;52.416;-0.732;2023-01-26T09:58:46;102296.46;;;1.95;100.00
46241;BME280;31961;52.416;-0.732;2023-01-26T10:01:20;102307.28;;;2.08;100.00
46241;BME280;31961;52.416;-0.732;2023-01-26T10:03:57;102300.87;;;2.28;100.00
46241;BME280;31961;52.416;-0.732;2023-01-26T10:06:28;102302.17;;;2.70;100.00
46241;BME280;31961;52.416;-0.732;2023-01-26T10:08:57;102298.77;;;2.59;100.00
46241;BME280;31961;52.416;-0.732;2023-01-26T10:11:31;102305.87;;;1.55;100.00
46241;BME280;31961;52.416;-0.732;2023-01-26T10:14:03;102311.26;;;1.18;100.00
46241;BME280;31961;52.416;-0.732;2023-01-26T10:16:33;102312.29;;;1.08;100.00
46241;BME280;31961;52.416;-0.732;2023-01-26T10:19:03;102312.40;;;2.51;100.00
46241;BME280;31961;52.416;-0.732;2023-01-26T10:21:34;102308.56;;;1.70;100.00
46241;BME280;31961;52.416;-0.732;2023-01-26T10:24:03;102315.56;;;2.50;100.00
46241;BME280;31961;52.416;-0.732;2023-01-26T10:26:32;102312.97;;;2.07;100.00
46241;BME280;31961;52.416;-0.732;2023-01-26T10:29:00;102313.26;;;2.45;100.00
46241;BME280;31961;52.416;-0.732;2023-01-26T10:31:29;102324.01;;;2.02;100.00
46241;BME280;31961;52.416;-0.732;2023-01-26T10:33:58;102324.78;;;2.43;100.00
46241;BME280;31961;52.416;-0.732;2023-01-26T10:36:28;102318.05;;;2.18;100.00
46241;BME280;31961;52.416;-0.732;2023-01-26T10:39:03;102323.73;;;2.44;100.00
46241;BME280;31961;52.416;-0.732;2023-01-26T10:41:32;102323.07;;;2.38;100.00
46241;BME280;31961;52.416;-0.732;2023-01-26T10:44:03;102322.95;;;2.59;100.00
46241;BME280;31961;52.416;-0.732;2023-01-26T10:46:32;102324.30;;;2.38;100.00
46241;BME280;31961;52.416;-0.732;2023-01-26T10:49:02;102321.85;;;3.07;100.00
46241;BME280;31961;52.416;-0.732;2023-01-26T10:51:31;102329.40;;;2.70;100.00
46241;BME280;31961;52.416;-0.732;2023-01-26T10:54:20;102318.55;;;2.83;100.00
46241;BME280;31961;52.416;-0.732;2023-01-26T10:56:50;102325.27;;;3.14;100.00
46241;BME280;31961;52.416;-0.732;2023-01-26T10:59:29;102323.73;;;3.56;100.00
46241;BME280;31961;52.416;-0.732;2023-01-26T11:02:00;102335.62;;;3.35;100.00
46241;BME280;31961;52.416;-0.732;2023-01-26T11:04:28;102330.95;;;3.08;100.00
46241;BME280;31961;52.416;-0.732;2023-01-26T11:07:22;102322.64;;;3.77;100.00
46241;BME280;31961;52.416;-0.732;2023-01-26T11:09:51;102324.28;;;2.91;100.00
46241;BME280;31961;52.416;-0.732;2023-01-26T11:12:20;102322.96;;;3.08;100.00
46241;BME280;31961;52.416;-0.732;2023-01-26T11:15:00;102308.79;;;4.42;100.00
46241;BME280;31961;52.416;-0.732;2023-01-26T11:17:33;102311.96;;;3.65;100.00
46241;BME280;31961;52.416;-0.732;2023-01-26T11:20:27;102311.47;;;3.61;100.00
46241;BME280;31961;52.416;-0.732;2023-01-26T11:23:07;102313.69;;;4.21;100.00
46241;BME280;31961;52.416;-0.732;2023-01-26T11:25:43;102306.20;;;4.29;100.00
46241;BME280;31961;52.416;-0.732;2023-01-26T11:28:28;102303.84;;;4.56;100.00
46241;BME280;31961;52.416;-0.732;2023-01-26T11:31:10;102302.21;;;3.42;100.00
46241;BME280;31961;52.416;-0.732;2023-01-26T11:33:47;102310.17;;;3.58;100.00
46241;BME280;31961;52.416;-0.732;2023-01-26T11:36:27;102312.24;;;3.15;100.00
46241;BME280;31961;52.416;-0.732;2023-01-26T11:39:04;102310.72;;;4.34;100.00
46241;BME280;31961;52.416;-0.732;2023-01-26T11:41:42;102312.26;;;4.48;100.00
46241;BME280;31961;52.416;-0.732;2023-01-26T11:44:24;102312.60;;;3.51;100.00
46241;BME280;31961;52.416;-0.732;2023-01-26T11:47:09;102308.00;;;3.23;100.00
46241;BME280;31961;52.416;-0.732;2023-01-26T11:49:57;102307.96;;;3.88;100.00
46241;BME280;31961;52.416;-0.732;2023-01-26T11:52:33;102310.32;;;3.71;100.00
46241;BME280;31961;52.416;-0.732;2023-01-26T11:55:15;102318.43;;;2.83;100.00
46241;BME280;31961;52.416;-0.732;2023-01-26T11:57:53;102313.71;;;3.68;100.00
46241;BME280;31961;52.416;-0.732;2023-01-26T12:00:32;102307.00;;;3.82;100.00
46241;BME280;31961;52.416;-0.732;2023-01-26T12:03:04;102301.16;;;4.54;100.00
46241;BME280;31961;52.416;-0.732;2023-01-26T12:05:39;102310.81;;;4.08;100.00
46241;BME280;31961;52.416;-0.732;2023-01-26T12:08:13;102308.84;;;3.85;100.00
46241;BME280;31961;52.416;-0.732;2023-01-26T12:10:47;102310.65;;;4.70;100.00
46241;BME280;31961;52.416;-0.732;2023-01-26T12:13:22;102300.24;;;4.66;100.00
46241;BME280;31961;52.416;-0.732;2023-01-26T12:15:57;102309.71;;;3.58;100.00
46241;BME280;31961;52.416;-0.732;2023-01-26T12:18:31;102313.27;;;4.52;100.00
46241;BME280;31961;52.416;-0.732;2023-01-26T12:21:04;102314.93;;;4.13;100.00
46241;BME280;31961;52.416;-0.732;2023-01-26T12:23:43;102311.18;;;5.26;100.00
46241;BME280;31961;52.416;-0.732;2023-01-26T12:26:16;102308.59;;;5.05;100.00
46241;BME280;31961;52.416;-0.732;2023-01-26T12:28:48;102308.76;;;4.45;100.00
46241;BME280;31961;52.416;-0.732;2023-01-26T12:31:20;102309.97;;;4.68;100.00
46241;BME280;31961;52.416;-0.732;2023-01-26T12:33:51;102316.94;;;4.45;100.00
46241;BME280;31961;52.416;-0.732;2023-01-26T12:36:27;102317.82;;;4.60;100.00
46241;BME280;31961;52.416;-0.732;2023-01-26T12:39:07;102311.98;;;4.18;100.00
46241;BME280;31961;52.416;-0.732;2023-01-26T12:41:47;102308.68;;;4.20;100.00
46241;BME280;31961;52.416;-0.732;2023-01-26T12:44:32;102302.63;;;3.28;100.00
46241;BME280;31961;52.416;-0.732;2023-01-26T12:47:07;102302.67;;;3.97;100.00
46241;BME280;31961;52.416;-0.732;2023-01-26T12:49:42;102304.72;;;4.04;100.00